sensor_id;sensor_type;location;lat;lon;timestamp;pressure;altitude;pressure_sealevel;temperature;humidity
50702;BME280;36670;50.094;8.496;2023-02-19T00:01:32;100689.44;;;12.11;65.28
50702;BME280;36670;50.094;8.496;2023-02-19T00:04:03;100691.19;;;12.17;64.93
50702;BME280;36670;50.094;8.496;2023-02-19T00:06:30;100686.50;;;12.01;65.37
50702;BME280;36670;50.094;8.496;2023-02-19T00:08:56;100683.91;;;11.94;66.05
50702;BME280;36670;50.094;8.496;2023-02-19T00:11:24;100679.53;;;11.98;66.07
50702;BME280;36670;50.094;8.496;2023-02-19T00:13:52;100676.53;;;12.00;65.95
50702;BME280;36670;50.094;8.496;2023-02-19T00:16:24;100683.66;;;11.95;65.55
50702;BME280;36670;50.094;8.496;2023-02-19T00:18:51;100663.44;;;11.95;66.32
50702;BME280;36670;50.094;8.496;2023-02-19T00:21:17;100675.00;;;11.92;66.58
50702;BME280;36670;50.094;8.496;2023-02-19T00:23:43;100674.06;;;11.86;66.13
50702;BME280;36670;50.094;8.496;2023-02-19T00:26:12;100680.13;;;11.83;66.27
50702;BME280;36670;50.094;8.496;2023-02-19T00:28:38;100677.34;;;11.83;66.00
50702;BME280;36670;50.094;8.496;2023-02-19T00:31:08;100679.44;;;11.93;66.48
50702;BME280;36670;50.094;8.496;2023-02-19T00:33:36;100672.75;;;12.06;65.74
50702;BME280;36670;50.094;8.496;2023-02-19T00:36:03;100676.44;;;11.94;66.63
50702;BME280;36670;50.094;8.496;2023-02-19T00:38:30;100674.50;;;11.95;65.95
50702;BME280;36670;50.094;8.496;2023-02-19T00:40:55;100684.97;;;11.93;66.03
50702;BME280;36670;50.094;8.496;2023-02-19T00:43:22;100684.97;;;11.93;66.48
50702;BME280;36670;50.094;8.496;2023-02-19T00:45:47;100687.91;;;11.86;66.69
50702;BME280;36670;50.094;8.496;2023-02-19T00:48:12;100673.00;;;11.87;66.72
50702;BME280;36670;50.094;8.496;2023-02-19T00:50:38;100665.78;;;11.86;66.46
50702;BME280;36670;50.094;8.496;2023-02-19T00:53:03;100666.28;;;11.83;66.15
50702;BME280;36670;50.094;8.496;2023-02-19T00:55:28;100661.94;;;11.87;66.72
50702;BME280;36670;50.094;8.496;2023-02-19T00:57:53;100663.78;;;11.99;65.99
50702;BME280;36670;50.094;8.496;2023-02-19T01:00:19;100672.09;;;11.99;66.20
50702;BME280;36670;50.094;8.496;2023-02-19T01:02:44;100676.03;;;12.03;65.83
50702;BME280;36670;50.094;8.496;2023-02-19T01:05:09;100668.91;;;12.07;66.37
50702;BME280;36670;50.094;8.496;2023-02-19T01:07:36;100658.38;;;11.92;66.57
50702;BME280;36670;50.094;8.496;2023-02-19T01:10:02;100656.66;;;12.03;66.52
50702;BME280;36670;50.094;8.496;2023-02-19T01:12:27;100657.22;;;12.05;66.15
50702;BME280;36670;50.094;8.496;2023-02-19T01:14:53;100660.31;;;11.91;66.58
50702;BME280;36670;50.094;8.496;2023-02-19T01:17:19;100658.13;;;11.93;66.88
50702;BME280;36670;50.094;8.496;2023-02-19T01:19:44;100655.13;;;11.95;66.79
50702;BME280;36670;50.094;8.496;2023-02-19T01:22:10;100655.53;;;12.04;66.31
50702;BME280;36670;50.094;8.496;2023-02-19T01:24:35;100656.97;;;12.06;66.22
50702;BME280;36670;50.094;8.496;2023-02-19T01:27:00;100652.03;;;12.08;65.91
50702;BME280;36670;50.094;8.496;2023-02-19T01:29:26;100658.56;;;12.19;65.98
50702;BME280;36670;50.094;8.496;2023-02-19T01:31:51;100653.84;;;12.20;65.73
50702;BME280;36670;50.094;8.496;2023-02-19T01:34:16;100652.03;;;12.08;66.29
50702;BME280;36670;50.094;8.496;2023-02-19T01:36:41;100646.97;;;12.22;65.20
50702;BME280;36670;50.094;8.496;2023-02-19T01:39:07;100641.69;;;12.04;65.98
50702;BME280;36670;50.094;8.496;2023-02-19T01:41:36;100645.72;;;12.13;66.27
50702;BME280;36670;50.094;8.496;2023-02-19T01:44:07;100641.91;;;11.97;66.37
50702;BME280;36670;50.094;8.496;2023-02-19T01:46:34;100639.97;;;11.98;66.80
50702;BME280;36670;50.094;8.496;2023-02-19T01:52:12;100622.34;;;11.87;67.07
50702;BME280;36670;50.094;8.496;2023-02-19T01:54:41;100622.28;;;11.65;67.16
50702;BME280;36670;50.094;8.496;2023-02-19T01:57:12;100616.06;;;11.57;68.09
50702;BME280;36670;50.094;8.496;2023-02-19T01:59:40;100612.66;;;11.50;67.46
50702;BME280;36670;50.094;8.496;2023-02-19T02:02:05;100622.03;;;11.49;67.81
50702;BME280;36670;50.094;8.496;2023-02-19T02:04:31;100614.22;;;11.46;68.09
50702;BME280;36670;50.094;8.496;2023-02-19T02:06:58;100611.38;;;11.41;68.84
50702;BME280;36670;50.094;8.496;2023-02-19T02:09:26;100611.63;;;11.39;69.14
50702;BME280;36670;50.094;8.496;2023-02-19T02:12:11;100606.44;;;11.43;68.63
50702;BME280;36670;50.094;8.496;2023-02-19T02:14:39;100606.59;;;11.53;68.86
50702;BME280;36670;50.094;8.496;2023-02-19T02:17:11;100606.03;;;11.68;68.33
50702;BME280;36670;50.094;8.496;2023-02-19T02:20:10;100600.91;;;11.60;68.53
50702;BME280;36670;50.094;8.496;2023-02-19T02:22:56;100600.34;;;11.58;68.21
50702;BME280;36670;50.094;8.496;2023-02-19T02:31:33;100592.88;;;11.58;68.72
50702;BME280;36670;50.094;8.496;2023-02-19T02:34:17;100596.16;;;11.55;69.07
50702;BME280;36670;50.094;8.496;2023-02-19T02:36:45;100598.63;;;11.74;68.06
50702;BME280;36670;50.094;8.496;2023-02-19T02:39:15;100591.38;;;11.68;68.23
50702;BME280;36670;50.094;8.496;2023-02-19T02:41:48;100591.34;;;11.51;69.48
50702;BME280;36670;50.094;8.496;2023-02-19T02:44:39;100565.63;;;11.50;69.10
50702;BME280;36670;50.094;8.496;2023-02-19T02:47:06;100566.28;;;11.57;68.77
50702;BME280;36670;50.094;8.496;2023-02-19T02:49:52;100575.88;;;11.50;68.58
50702;BME280;36670;50.094;8.496;2023-02-19T02:52:30;100581.31;;;11.44;68.45
50702;BME280;36670;50.094;8.496;2023-02-19T02:55:15;100573.84;;;11.45;68.73
50702;BME280;36670;50.094;8.496;2023-02-19T02:57:40;100574.44;;;11.47;68.53
50702;BME280;36670;50.094;8.496;2023-02-19T03:00:06;100566.81;;;11.54;68.48
50702;BME280;36670;50.094;8.496;2023-02-19T03:02:32;100570.34;;;11.50;69.20
50702;BME280;36670;50.094;8.496;2023-02-19T03:05:05;100567.81;;;11.65;68.45
50702;BME280;36670;50.094;8.496;2023-02-19T03:08:13;100580.13;;;11.57;68.80
50702;BME280;36670;50.094;8.496;2023-02-19T03:10:43;100577.53;;;11.68;69.01
50702;BME280;36670;50.094;8.496;2023-02-19T03:13:15;100573.41;;;11.70;69.20
50702;BME280;36670;50.094;8.496;2023-02-19T03:16:06;100570.22;;;11.61;69.37
50702;BME280;36670;50.094;8.496;2023-02-19T03:18:53;100567.97;;;11.58;69.14
50702;BME280;36670;50.094;8.496;2023-02-19T03:21:41;100564.78;;;11.67;68.79
50702;BME280;36670;50.094;8.496;2023-02-19T03:24:09;100568.28;;;11.62;68.57
50702;BME280;36670;50.094;8.496;2023-02-19T03:26:57;100579.03;;;11.58;69.36
50702;BME280;36670;50.094;8.496;2023-02-19T03:29:25;100577.88;;;11.54;69.35
50702;BME280;36670;50.094;8.496;2023-02-19T03:31:57;100571.75;;;11.52;69.57
50702;BME280;36670;50.094;8.496;2023-02-19T03:34:28;100573.09;;;11.67;69.25
50702;BME280;36670;50.094;8.496;2023-02-19T03:37:18;100569.16;;;11.63;69.50
50702;BME280;36670;50.094;8.496;2023-02-19T03:39:48;100571.25;;;11.55;70.19
50702;BME280;36670;50.094;8.496;2023-02-19T03:42:23;100560.88;;;11.46;70.16
50702;BME280;36670;50.094;8.496;2023-02-19T03:45:10;100572.09;;;11.39;70.39
50702;BME280;36670;50.094;8.496;2023-02-19T03:47:51;100575.69;;;11.39;71.17
50702;BME280;36670;50.094;8.496;2023-02-19T03:50:35;100577.63;;;11.39;71.47
50702;BME280;36670;50.094;8.496;2023-02-19T03:53:11;100580.81;;;11.48;71.29
50702;BME280;36670;50.094;8.496;2023-02-19T03:56:13;100586.94;;;11.50;70.33
50702;BME280;36670;50.094;8.496;2023-02-19T04:01:30;100583.47;;;11.42;70.79
50702;BME280;36670;50.094;8.496;2023-02-19T04:04:05;100584.31;;;11.60;70.07
50702;BME280;36670;50.094;8.496;2023-02-19T04:06:33;100584.41;;;11.65;70.56
50702;BME280;36670;50.094;8.496;2023-02-19T04:09:02;100582.13;;;11.79;70.32
50702;BME280;36670;50.094;8.496;2023-02-19T04:11:29;100577.59;;;11.73;69.89
50702;BME280;36670;50.094;8.496;2023-02-19T04:14:15;100563.19;;;11.71;69.73
50702;BME280;36670;50.094;8.496;2023-02-19T04:16:46;100577.19;;;11.64;69.38
50702;BME280;36670;50.094;8.496;2023-02-19T04:19:17;100572.09;;;11.56;69.74
50702;BME280;36670;50.094;8.496;2023-02-19T04:21:45;100571.31;;;11.60;69.07
50702;BME280;36670;50.094;8.496;2023-02-19T04:24:14;100566.13;;;11.64;68.97
50702;BME280;36670;50.094;8.496;2023-02-19T04:26:43;100572.44;;;11.59;68.67
50702;BME280;36670;50.094;8.496;2023-02-19T04:29:09;100571.59;;;11.42;69.35
50702;BME280;36670;50.094;8.496;2023-02-19T04:31:35;100572.66;;;11.41;69.33
50702;BME280;36670;50.094;8.496;2023-02-19T04:34:02;100574.94;;;11.44;69.13
50702;BME280;36670;50.094;8.496;2023-02-19T04:36:28;100570.94;;;11.35;69.56
50702;BME280;36670;50.094;8.496;2023-02-19T04:38:53;100565.72;;;11.38;68.93
50702;BME280;36670;50.094;8.496;2023-02-19T04:41:19;100568.91;;;11.47;68.45
50702;BME280;36670;50.094;8.496;2023-02-19T04:43:44;100566.22;;;11.35;69.05
50702;BME280;36670;50.094;8.496;2023-02-19T04:46:09;100579.31;;;11.40;69.14
50702;BME280;36670;50.094;8.496;2023-02-19T04:48:34;100589.34;;;11.29;69.03
50702;BME280;36670;50.094;8.496;2023-02-19T04:51:04;100601.78;;;11.15;70.13
50702;BME280;36670;50.094;8.496;2023-02-19T04:53:29;100603.47;;;11.16;69.68
50702;BME280;36670;50.094;8.496;2023-02-19T04:55:55;100596.63;;;11.18;69.69
50702;BME280;36670;50.094;8.496;2023-02-19T04:58:20;100586.81;;;11.10;69.51
50702;BME280;36670;50.094;8.496;2023-02-19T05:00:50;100612.09;;;11.02;70.03
50702;BME280;36670;50.094;8.496;2023-02-19T05:03:16;100614.63;;;11.04;70.00
50702;BME280;36670;50.094;8.496;2023-02-19T05:05:41;100607.91;;;11.00;70.77
50702;BME280;36670;50.094;8.496;2023-02-19T05:08:06;100604.81;;;11.13;69.88
50702;BME280;36670;50.094;8.496;2023-02-19T05:10:32;100609.50;;;11.13;70.59
50702;BME280;36670;50.094;8.496;2023-02-19T05:12:57;100616.53;;;11.03;70.08
50702;BME280;36670;50.094;8.496;2023-02-19T05:15:23;100608.44;;;10.85;71.07
50702;BME280;36670;50.094;8.496;2023-02-19T05:17:48;100609.25;;;10.97;70.19
50702;BME280;36670;50.094;8.496;2023-02-19T05:20:13;100625.31;;;11.00;70.41
50702;BME280;36670;50.094;8.496;2023-02-19T05:22:39;100635.28;;;11.01;70.26
50702;BME280;36670;50.094;8.496;2023-02-19T05:25:04;100637.16;;;11.13;70.41
50702;BME280;36670;50.094;8.496;2023-02-19T05:27:30;100620.31;;;11.14;70.44
50702;BME280;36670;50.094;8.496;2023-02-19T05:29:55;100632.69;;;11.12;69.46
50702;BME280;36670;50.094;8.496;2023-02-19T05:32:20;100620.66;;;11.18;69.40
50702;BME280;36670;50.094;8.496;2023-02-19T05:34:46;100628.84;;;11.13;69.47
50702;BME280;36670;50.094;8.496;2023-02-19T05:37:11;100622.00;;;11.15;69.94
50702;BME280;36670;50.094;8.496;2023-02-19T05:39:36;100627.16;;;11.12;69.66
50702;BME280;36670;50.094;8.496;2023-02-19T05:42:02;100640.31;;;11.04;69.73
50702;BME280;36670;50.094;8.496;2023-02-19T05:44:27;100637.03;;;11.07;69.81
50702;BME280;36670;50.094;8.496;2023-02-19T05:46:52;100641.34;;;11.15;69.43
50702;BME280;36670;50.094;8.496;2023-02-19T05:49:17;100651.63;;;11.20;69.50
50702;BME280;36670;50.094;8.496;2023-02-19T05:51:43;100654.34;;;11.32;68.79
50702;BME280;36670;50.094;8.496;2023-02-19T05:54:08;100659.28;;;11.30;68.89
50702;BME280;36670;50.094;8.496;2023-02-19T05:56:38;100656.25;;;11.31;68.35
50702;BME280;36670;50.094;8.496;2023-02-19T05:59:15;100664.81;;;11.30;68.25
50702;BME280;36670;50.094;8.496;2023-02-19T06:01:41;100666.66;;;11.24;69.18
50702;BME280;36670;50.094;8.496;2023-02-19T06:04:07;100669.56;;;11.17;69.27
50702;BME280;36670;50.094;8.496;2023-02-19T06:06:32;100672.44;;;11.39;67.88
50702;BME280;36670;50.094;8.496;2023-02-19T06:08:58;100683.25;;;11.41;68.43
50702;BME280;36670;50.094;8.496;2023-02-19T06:11:24;100678.84;;;11.40;68.31
50702;BME280;36670;50.094;8.496;2023-02-19T06:13:49;100689.91;;;11.40;68.76
50702;BME280;36670;50.094;8.496;2023-02-19T06:16:15;100700.84;;;11.35;68.67
50702;BME280;36670;50.094;8.496;2023-02-19T06:18:42;100692.22;;;11.48;69.36
50702;BME280;36670;50.094;8.496;2023-02-19T06:21:09;100698.41;;;11.38;68.87
50702;BME280;36670;50.094;8.496;2023-02-19T06:23:34;100703.09;;;11.38;69.11
50702;BME280;36670;50.094;8.496;2023-02-19T06:26:16;100706.03;;;11.31;69.17
50702;BME280;36670;50.094;8.496;2023-02-19T06:28:45;100723.06;;;11.40;69.20
50702;BME280;36670;50.094;8.496;2023-02-19T06:31:11;100720.59;;;11.55;68.31
50702;BME280;36670;50.094;8.496;2023-02-19T06:33:38;100718.53;;;11.51;68.48
50702;BME280;36670;50.094;8.496;2023-02-19T06:36:14;100724.59;;;11.65;68.17
50702;BME280;36670;50.094;8.496;2023-02-19T06:38:40;100726.44;;;11.59;67.95
50702;BME280;36670;50.094;8.496;2023-02-19T06:41:06;100732.22;;;11.74;67.53
50702;BME280;36670;50.094;8.496;2023-02-19T06:43:33;100739.34;;;11.70;67.72
50702;BME280;36670;50.094;8.496;2023-02-19T06:45:59;100747.59;;;11.82;67.25
50702;BME280;36670;50.094;8.496;2023-02-19T06:48:25;100746.16;;;11.79;67.81
50702;BME280;36670;50.094;8.496;2023-02-19T06:50:51;100750.72;;;11.86;66.88
50702;BME280;36670;50.094;8.496;2023-02-19T06:53:16;100751.03;;;11.89;67.43
50702;BME280;36670;50.094;8.496;2023-02-19T06:55:42;100760.91;;;11.85;66.76
50702;BME280;36670;50.094;8.496;2023-02-19T06:58:07;100757.31;;;11.85;66.41
50702;BME280;36670;50.094;8.496;2023-02-19T07:00:33;100764.50;;;11.98;66.97
50702;BME280;36670;50.094;8.496;2023-02-19T07:02:58;100761.56;;;12.04;66.95
50702;BME280;36670;50.094;8.496;2023-02-19T07:05:23;100767.50;;;12.13;66.28
50702;BME280;36670;50.094;8.496;2023-02-19T07:07:49;100764.88;;;11.89;66.46
50702;BME280;36670;50.094;8.496;2023-02-19T07:10:15;100769.00;;;12.04;67.79
50702;BME280;36670;50.094;8.496;2023-02-19T07:12:40;100769.72;;;12.11;66.69
50702;BME280;36670;50.094;8.496;2023-02-19T07:15:06;100772.22;;;11.95;67.73
50702;BME280;36670;50.094;8.496;2023-02-19T07:17:33;100768.91;;;11.82;67.46
50702;BME280;36670;50.094;8.496;2023-02-19T07:19:58;100770.13;;;11.74;67.46
50702;BME280;36670;50.094;8.496;2023-02-19T07:22:23;100775.84;;;11.84;68.07
50702;BME280;36670;50.094;8.496;2023-02-19T07:24:48;100779.66;;;11.66;68.22
50702;BME280;36670;50.094;8.496;2023-02-19T07:27:14;100774.06;;;11.78;68.12
50702;BME280;36670;50.094;8.496;2023-02-19T07:29:39;100771.56;;;11.93;67.84
50702;BME280;36670;50.094;8.496;2023-02-19T07:32:04;100781.34;;;11.96;67.98
50702;BME280;36670;50.094;8.496;2023-02-19T07:34:30;100786.88;;;11.96;67.00
50702;BME280;36670;50.094;8.496;2023-02-19T07:36:55;100787.50;;;11.86;67.66
50702;BME280;36670;50.094;8.496;2023-02-19T07:39:20;100788.81;;;11.95;67.67
50702;BME280;36670;50.094;8.496;2023-02-19T07:41:45;100792.41;;;11.96;67.38
50702;BME280;36670;50.094;8.496;2023-02-19T07:44:11;100798.97;;;12.07;66.64
50702;BME280;36670;50.094;8.496;2023-02-19T07:46:40;100792.50;;;12.18;66.85
50702;BME280;36670;50.094;8.496;2023-02-19T07:49:05;100805.94;;;12.26;66.01
50702;BME280;36670;50.094;8.496;2023-02-19T07:51:31;100809.78;;;12.25;65.72
50702;BME280;36670;50.094;8.496;2023-02-19T07:53:56;100818.66;;;12.27;66.09
50702;BME280;36670;50.094;8.496;2023-02-19T07:56:21;100819.13;;;12.19;66.23
50702;BME280;36670;50.094;8.496;2023-02-19T07:58:47;100816.66;;;12.23;65.84
50702;BME280;36670;50.094;8.496;2023-02-19T08:01:18;100817.22;;;12.08;66.97
50702;BME280;36670;50.094;8.496;2023-02-19T08:04:04;100833.53;;;12.21;66.83
50702;BME280;36670;50.094;8.496;2023-02-19T08:06:29;100850.44;;;12.08;66.47
50702;BME280;36670;50.094;8.496;2023-02-19T08:08:54;100848.63;;;11.85;67.51
50702;BME280;36670;50.094;8.496;2023-02-19T08:11:21;100859.44;;;11.86;67.44
50702;BME280;36670;50.094;8.496;2023-02-19T08:14:05;100866.97;;;12.03;67.43
50702;BME280;36670;50.094;8.496;2023-02-19T08:16:31;100876.88;;;11.99;68.03
50702;BME280;36670;50.094;8.496;2023-02-19T08:18:56;100876.34;;;12.02;68.03
50702;BME280;36670;50.094;8.496;2023-02-19T08:21:21;100882.50;;;11.92;67.87
50702;BME280;36670;50.094;8.496;2023-02-19T08:23:47;100889.97;;;11.91;68.87
50702;BME280;36670;50.094;8.496;2023-02-19T08:26:14;100892.66;;;11.86;68.17
50702;BME280;36670;50.094;8.496;2023-02-19T08:28:39;100898.66;;;11.95;68.57
50702;BME280;36670;50.094;8.496;2023-02-19T08:31:06;100903.09;;;11.96;68.92
50702;BME280;36670;50.094;8.496;2023-02-19T08:33:33;100909.06;;;12.05;68.50
50702;BME280;36670;50.094;8.496;2023-02-19T08:36:03;100912.22;;;11.97;68.29
50702;BME280;36670;50.094;8.496;2023-02-19T08:38:30;100912.34;;;12.02;68.05
50702;BME280;36670;50.094;8.496;2023-02-19T08:40:56;100918.44;;;12.04;67.75
50702;BME280;36670;50.094;8.496;2023-02-19T08:43:22;100918.22;;;12.05;68.40
50702;BME280;36670;50.094;8.496;2023-02-19T08:45:47;100919.50;;;12.15;68.11
50702;BME280;36670;50.094;8.496;2023-02-19T08:48:12;100933.00;;;12.11;68.24
50702;BME280;36670;50.094;8.496;2023-02-19T08:50:38;100933.84;;;12.11;67.31
50702;BME280;36670;50.094;8.496;2023-02-19T08:53:05;100922.94;;;12.22;67.93
50702;BME280;36670;50.094;8.496;2023-02-19T08:55:31;100924.34;;;12.53;66.88
50702;BME280;36670;50.094;8.496;2023-02-19T08:57:57;100927.53;;;12.45;66.92
50702;BME280;36670;50.094;8.496;2023-02-19T09:00:23;100911.00;;;12.33;66.74
50702;BME280;36670;50.094;8.496;2023-02-19T09:02:49;100906.63;;;12.37;67.03
50702;BME280;36670;50.094;8.496;2023-02-19T09:05:14;100913.56;;;12.40;66.52
50702;BME280;36670;50.094;8.496;2023-02-19T09:07:40;100916.53;;;12.50;66.23
50702;BME280;36670;50.094;8.496;2023-02-19T09:10:06;100924.59;;;12.52;66.37
50702;BME280;36670;50.094;8.496;2023-02-19T09:12:33;100928.97;;;12.64;65.70
50702;BME280;36670;50.094;8.496;2023-02-19T09:14:59;100930.31;;;12.79;65.59
50702;BME280;36670;50.094;8.496;2023-02-19T09:17:24;100933.00;;;12.74;65.39
50702;BME280;36670;50.094;8.496;2023-02-19T09:19:49;100945.69;;;12.87;65.53
50702;BME280;36670;50.094;8.496;2023-02-19T09:22:14;100944.84;;;12.86;64.89
50702;BME280;36670;50.094;8.496;2023-02-19T09:24:41;100955.16;;;12.91;64.33
50702;BME280;36670;50.094;8.496;2023-02-19T09:27:07;100957.44;;;12.77;64.84
50702;BME280;36670;50.094;8.496;2023-02-19T09:29:32;100943.66;;;12.82;64.58
50702;BME280;36670;50.094;8.496;2023-02-19T09:31:59;100944.84;;;12.86;64.71
50702;BME280;36670;50.094;8.496;2023-02-19T09:34:26;100945.25;;;12.78;64.48
50702;BME280;36670;50.094;8.496;2023-02-19T09:36:52;100945.94;;;12.85;63.87
50702;BME280;36670;50.094;8.496;2023-02-19T09:39:18;100955.31;;;12.67;64.36
50702;BME280;36670;50.094;8.496;2023-02-19T09:41:48;100958.44;;;12.71;64.04
50702;BME280;36670;50.094;8.496;2023-02-19T09:44:31;100958.97;;;12.85;64.40
50702;BME280;36670;50.094;8.496;2023-02-19T09:46:57;100966.66;;;12.66;65.34
50702;BME280;36670;50.094;8.496;2023-02-19T09:54:28;100967.44;;;12.61;66.40
50702;BME280;36670;50.094;8.496;2023-02-19T09:56:56;100976.28;;;12.46;66.57
50702;BME280;36670;50.094;8.496;2023-02-19T09:59:47;100983.16;;;12.43;66.60
50702;BME280;36670;50.094;8.496;2023-02-19T10:02:18;100988.03;;;12.53;67.47
50702;BME280;36670;50.094;8.496;2023-02-19T10:04:45;100990.34;;;12.73;66.81
50702;BME280;36670;50.094;8.496;2023-02-19T10:07:18;100981.34;;;12.83;66.68
50702;BME280;36670;50.094;8.496;2023-02-19T10:09:54;100993.53;;;12.65;66.52
50702;BME280;36670;50.094;8.496;2023-02-19T10:12:29;100996.47;;;12.75;66.37
50702;BME280;36670;50.094;8.496;2023-02-19T10:15:09;101005.44;;;12.66;66.47
50702;BME280;36670;50.094;8.496;2023-02-19T10:17:36;101011.81;;;12.66;67.13
50702;BME280;36670;50.094;8.496;2023-02-19T10:20:02;101014.97;;;12.87;67.37
50702;BME280;36670;50.094;8.496;2023-02-19T10:22:29;101021.50;;;12.80;66.81
50702;BME280;36670;50.094;8.496;2023-02-19T10:24:56;101024.75;;;12.60;67.33
50702;BME280;36670;50.094;8.496;2023-02-19T10:27:25;101027.56;;;12.49;67.63
50702;BME280;36670;50.094;8.496;2023-02-19T10:29:53;101034.69;;;12.44;67.63
50702;BME280;36670;50.094;8.496;2023-02-19T10:32:24;101039.19;;;12.62;67.63
50702;BME280;36670;50.094;8.496;2023-02-19T10:35:22;101030.28;;;12.60;67.27
50702;BME280;36670;50.094;8.496;2023-02-19T10:37:49;101040.38;;;12.67;67.41
50702;BME280;36670;50.094;8.496;2023-02-19T10:40:17;101042.94;;;12.56;67.06
50702;BME280;36670;50.094;8.496;2023-02-19T10:42:45;101042.88;;;12.51;67.10
50702;BME280;36670;50.094;8.496;2023-02-19T10:45:25;101057.66;;;12.57;66.78
50702;BME280;36670;50.094;8.496;2023-02-19T10:47:53;101065.09;;;12.56;67.19
50702;BME280;36670;50.094;8.496;2023-02-19T10:50:26;101061.06;;;12.47;67.87
50702;BME280;36670;50.094;8.496;2023-02-19T10:52:54;101059.28;;;12.70;67.48
50702;BME280;36670;50.094;8.496;2023-02-19T10:55:34;101061.13;;;12.81;66.80
50702;BME280;36670;50.094;8.496;2023-02-19T10:58:24;101064.41;;;12.78;67.00
50702;BME280;36670;50.094;8.496;2023-02-19T11:03:40;101077.59;;;12.71;66.24
50702;BME280;36670;50.094;8.496;2023-02-19T11:06:07;101079.75;;;12.69;67.05
50702;BME280;36670;50.094;8.496;2023-02-19T11:08:55;101079.63;;;12.92;66.57
50702;BME280;36670;50.094;8.496;2023-02-19T11:11:30;101085.13;;;13.04;66.47
50702;BME280;36670;50.094;8.496;2023-02-19T11:13:59;101074.91;;;13.39;66.15
50702;BME280;36670;50.094;8.496;2023-02-19T11:16:47;101064.47;;;13.63;65.89
50702;BME280;36670;50.094;8.496;2023-02-19T11:19:43;101062.78;;;13.62;64.86
50702;BME280;36670;50.094;8.496;2023-02-19T11:24:54;101062.59;;;14.08;64.37
50702;BME280;36670;50.094;8.496;2023-02-19T11:27:22;101064.72;;;14.00;63.95
50702;BME280;36670;50.094;8.496;2023-02-19T11:29:48;101069.94;;;13.97;62.92
50702;BME280;36670;50.094;8.496;2023-02-19T11:34:45;101074.22;;;14.05;63.11
50702;BME280;36670;50.094;8.496;2023-02-19T11:37:13;101065.75;;;14.16;63.06
50702;BME280;36670;50.094;8.496;2023-02-19T11:39:50;101057.88;;;14.30;62.67
50702;BME280;36670;50.094;8.496;2023-02-19T11:45:17;101077.44;;;13.96;61.48
50702;BME280;36670;50.094;8.496;2023-02-19T11:50:56;101087.75;;;13.62;61.32
50702;BME280;36670;50.094;8.496;2023-02-19T12:01:22;101064.66;;;13.39;60.84
50702;BME280;36670;50.094;8.496;2023-02-19T12:09:25;101070.00;;;13.29;61.48
50702;BME280;36670;50.094;8.496;2023-02-19T12:12:21;101065.31;;;13.46;61.23
50702;BME280;36670;50.094;8.496;2023-02-19T12:17:43;101067.38;;;13.73;60.92
50702;BME280;36670;50.094;8.496;2023-02-19T12:31:22;101081.72;;;13.48;60.28
50702;BME280;36670;50.094;8.496;2023-02-19T12:42:27;101095.81;;;13.63;59.76
50702;BME280;36670;50.094;8.496;2023-02-19T12:45:03;101090.78;;;13.60;59.07
50702;BME280;36670;50.094;8.496;2023-02-19T12:47:35;101084.13;;;13.78;59.57
50702;BME280;36670;50.094;8.496;2023-02-19T12:50:15;101067.31;;;14.07;58.02
50702;BME280;36670;50.094;8.496;2023-02-19T12:52:48;101067.13;;;13.92;58.64
50702;BME280;36670;50.094;8.496;2023-02-19T12:55:28;101058.72;;;14.31;58.53
50702;BME280;36670;50.094;8.496;2023-02-19T12:57:55;101062.00;;;14.50;59.00
50702;BME280;36670;50.094;8.496;2023-02-19T13:03:27;101054.09;;;14.42;57.79
50702;BME280;36670;50.094;8.496;2023-02-19T13:09:45;101060.97;;;14.12;58.72
50702;BME280;36670;50.094;8.496;2023-02-19T13:12:13;101075.19;;;13.93;59.12
50702;BME280;36670;50.094;8.496;2023-02-19T13:14:42;101076.19;;;13.87;60.26
50702;BME280;36670;50.094;8.496;2023-02-19T13:19:55;101079.25;;;14.08;58.85
50702;BME280;36670;50.094;8.496;2023-02-19T13:22:37;101078.53;;;13.95;59.62
50702;BME280;36670;50.094;8.496;2023-02-19T13:25:38;101082.25;;;13.84;59.69
50702;BME280;36670;50.094;8.496;2023-02-19T13:28:15;101094.66;;;13.59;60.84
50702;BME280;36670;50.094;8.496;2023-02-19T13:31:09;101080.50;;;13.61;60.44
50702;BME280;36670;50.094;8.496;2023-02-19T13:34:20;101082.34;;;13.72;61.69
50702;BME280;36670;50.094;8.496;2023-02-19T13:36:47;101083.34;;;13.83;60.88
50702;BME280;36670;50.094;8.496;2023-02-19T13:39:15;101082.97;;;13.57;61.72
50702;BME280;36670;50.094;8.496;2023-02-19T13:41:55;101080.31;;;13.85;61.27
50702;BME280;36670;50.094;8.496;2023-02-19T13:44:24;101090.41;;;13.91;61.52
50702;BME280;36670;50.094;8.496;2023-02-19T13:46:51;101083.28;;;14.17;60.96
50702;BME280;36670;50.094;8.496;2023-02-19T13:51:59;101090.28;;;14.03;60.95
50702;BME280;36670;50.094;8.496;2023-02-19T13:54:28;101090.53;;;14.01;60.28
50702;BME280;36670;50.094;8.496;2023-02-19T13:57:25;101096.34;;;13.60;61.40
50702;BME280;36670;50.094;8.496;2023-02-19T13:59:53;101106.00;;;13.58;60.84
50702;BME280;36670;50.094;8.496;2023-02-19T14:09:44;101126.59;;;12.99;63.59
50702;BME280;36670;50.094;8.496;2023-02-19T14:14:41;101129.75;;;12.62;65.97
50702;BME280;36670;50.094;8.496;2023-02-19T14:28:22;101115.00;;;13.02;64.37
50702;BME280;36670;50.094;8.496;2023-02-19T14:31:01;101115.66;;;12.92;65.77
50702;BME280;36670;50.094;8.496;2023-02-19T14:33:32;101116.19;;;12.77;64.86
50702;BME280;36670;50.094;8.496;2023-02-19T14:36:04;101117.34;;;12.93;64.65
50702;BME280;36670;50.094;8.496;2023-02-19T14:38:37;101120.25;;;12.87;64.82
50702;BME280;36670;50.094;8.496;2023-02-19T14:41:04;101110.72;;;12.94;64.75
50702;BME280;36670;50.094;8.496;2023-02-19T14:43:32;101110.13;;;12.92;64.56
50702;BME280;36670;50.094;8.496;2023-02-19T14:46:22;101109.81;;;13.06;63.90